Meteo Giornale » Osservazioni meteo Italia » Bari-Palese Macchie

ore: 16:20 - Osservazioni Meteo Bari-Palese Macchie
Lat. 41° 8' N Lon. 16° 47' E Alt. 34 metri s.l.m.

sereno Europe/Rome

17 °C

Sereno

Temp. 24 Ore

7 °C

18 °C

Nord-Est

11.1 Km/h

Dew point 10 °C

Umidità 63 %

Visibilità  10 Km

Il sole sorge alle ore 06:05

Il sole tramonta alle ore 19:38

Data e Ora Cielo e Fenomeni T °C DP °C Um. % Pres. hPa Vis. km Vento km/h
Oggi h: 16:20 sereno Sereno 17 10 63 1026 10 NE 11.1
Oggi h: 15:50 sereno Sereno 17 9 59 1026 10 N/NE 14.8
Oggi h: 15:20 sereno Sereno 18 8 51 1026 10 N/NE 13
Oggi h: 14:50 poco_nuvoloso Poco Nuvoloso 18 6 45 1027 10 N/NE 11.1
Oggi h: 14:20 poco_nuvoloso Poco Nuvoloso 17 10 63 1027 10 NE 14.8
Oggi h: 13:50 poco_nuvoloso Poco Nuvoloso 17 11 67 1027 10 NE 13
Oggi h: 13:20 poco_nuvoloso Poco Nuvoloso 17 11 67 1027 10 NE 13
Oggi h: 12:50 poco_nuvoloso Poco Nuvoloso 17 11 67 1027 10 N/NE 13
Oggi h: 12:20 sereno Sereno 17 10 63 1027 10 N/NE 13
Oggi h: 11:50 sereno Sereno 17 11 67 1027 10 N 14.8
Oggi h: 11:20 sereno Sereno 17 11 67 1027 10 N 13
Oggi h: 10:50 sereno Sereno 16 11 72 1027 10 N 13
Oggi h: 10:20 sereno Sereno 16 10 67 1027 10 N 13
Oggi h: 09:50 sereno Sereno 15 9 67 1027 10 N 13
Oggi h: 08:50 sereno Sereno 15 8 62 1027 10 N 11.1
Oggi h: 08:20 sereno Sereno 14 8 67 1026 10 NO 9.3
Oggi h: 07:50 sereno Sereno 12 8 76 1026 10 O 7.4
Oggi h: 07:20 sereno Sereno 10 7 81 1026 10 O 7.4
Oggi h: 06:50 sereno Sereno 9 7 87 1026 10 O/NO 11.1
Oggi h: 06:20 sereno Sereno 7 5 87 1026 10 O 9.3
Oggi h: 05:50 sereno Sereno 7 5 87 1025 10 O 11.1
Oggi h: 05:20 sereno Sereno 7 6 93 1025 10 O 9.3
Oggi h: 04:20 sereno Sereno 7 6 93 1025 10 N 1.8
Oggi h: 03:50 sereno Sereno 8 6 87 1025 10 N 5.5
Oggi h: 03:20 sereno Sereno 8 6 87 1025 10 O/SO 7.4
Oggi h: 02:50 sereno Sereno 8 6 87 1025 10 SO 9.3
Oggi h: 02:20 sereno Sereno 9 7 87 1025 10 SO 11.1
Oggi h: 01:50 sereno Sereno 9 8 93 1025 10 SO 9.3
Oggi h: 01:20 sereno Sereno 9 8 93 1025 10 SO 9.3
Oggi h: 00:50 sereno Sereno 9 8 93 1025 10 O/SO 7.4
Oggi h: 00:20 sereno Sereno 9 8 93 1025 10 SO 7.4
Ieri h: 23:50 sereno Sereno 9 8 93 1025 10 SO 9.3
Ieri h: 23:20 sereno Sereno 10 9 93 1025 10 N 5.5
Ieri h: 22:50 sereno Sereno 10 9 93 1025 10 SO 7.4
Ieri h: 22:20 sereno Sereno 11 10 93 1025 10 N 5.5
Ieri h: 21:50 sereno Sereno 12 10 87 1025 10 N 5.5
Ieri h: 21:20 sereno Sereno 12 10 87 1024 10 O/NO 9.3
Ieri h: 20:50 sereno Sereno 12 10 87 1024 10 O 9.3
Ieri h: 20:20 sereno Sereno 14 11 82 1024 10 N/NO 7.4
Ieri h: 19:50 sereno Sereno 14 10 76 1023 10 NO 7.4
Ieri h: 19:20 sereno Sereno 15 10 72 1023 10 N 11.1
Ieri h: 18:50 sereno Sereno 16 9 63 1023 10 N 14.8
Ieri h: 18:20 sereno Sereno 16 9 63 1023 10 N 13
Ieri h: 17:50 sereno Sereno 17 8 55 1022 10 N 13
Ieri h: 17:20 sereno Sereno 17 9 59 1022 10 N/NE 13
Ieri h: 16:50 sereno Sereno 17 12 72 1022 10 N/NE 13